createdAt,value
2018-10-02T00:00:29.284Z,951.40
2018-10-02T00:01:29.282Z,951.41
2018-10-02T00:02:29.269Z,951.40
2018-10-02T00:03:29.262Z,951.42
2018-10-02T00:04:29.258Z,951.40
2018-10-02T00:05:29.255Z,951.44
2018-10-02T00:06:29.243Z,951.46
2018-10-02T00:07:29.242Z,951.47
2018-10-02T00:08:29.234Z,951.48
2018-10-02T00:09:29.229Z,951.46
2018-10-02T00:10:29.215Z,951.47
2018-10-02T00:11:29.210Z,951.41
2018-10-02T00:12:29.205Z,951.44
2018-10-02T00:13:29.195Z,951.45
2018-10-02T00:14:29.187Z,951.47
2018-10-02T00:15:29.189Z,951.42
2018-10-02T00:16:29.173Z,951.44
2018-10-02T00:17:29.194Z,951.40
2018-10-02T00:18:29.172Z,951.36
2018-10-02T00:19:29.150Z,951.37
2018-10-02T00:20:29.149Z,951.38
2018-10-02T00:21:29.138Z,951.43
2018-10-02T00:22:29.129Z,951.41
2018-10-02T00:23:29.122Z,951.40
2018-10-02T00:24:29.117Z,951.41
2018-10-02T00:25:29.132Z,951.42
2018-10-02T00:26:29.103Z,951.44
2018-10-02T00:27:29.097Z,951.39
2018-10-02T00:28:29.088Z,951.48
2018-10-02T00:29:29.082Z,951.47
2018-10-02T00:30:29.075Z,951.50
2018-10-02T00:31:29.080Z,951.45
2018-10-02T00:32:29.158Z,951.48
2018-10-02T00:33:29.054Z,951.49
2018-10-02T00:34:29.045Z,951.49
2018-10-02T00:35:29.041Z,951.48
2018-10-02T00:36:29.028Z,951.51
2018-10-02T00:37:29.021Z,951.51
2018-10-02T00:38:29.015Z,951.52
2018-10-02T00:39:29.006Z,951.53
2018-10-02T00:40:28.997Z,951.54
2018-10-02T00:41:28.991Z,951.50
2018-10-02T00:42:28.979Z,951.52
2018-10-02T00:43:28.974Z,951.50
2018-10-02T00:44:28.972Z,951.52
2018-10-02T00:45:28.959Z,951.52
2018-10-02T00:46:28.954Z,951.47
2018-10-02T00:47:28.944Z,951.47
2018-10-02T00:48:28.945Z,951.50
2018-10-02T00:49:28.936Z,951.47
2018-10-02T00:50:28.920Z,951.51
2018-10-02T00:51:28.916Z,951.49
2018-10-02T00:52:28.905Z,951.46
2018-10-02T00:53:28.895Z,951.49
2018-10-02T00:54:28.889Z,951.44
2018-10-02T00:55:28.884Z,951.48
2018-10-02T00:56:28.876Z,951.49
2018-10-02T00:57:28.886Z,951.41
2018-10-02T00:58:28.867Z,951.46
2018-10-02T00:59:28.849Z,951.45
2018-10-02T01:00:28.842Z,951.45
2018-10-02T01:01:28.833Z,951.46
2018-10-02T01:02:28.853Z,951.50
2018-10-02T01:03:28.818Z,951.49
2018-10-02T01:04:28.808Z,951.55
2018-10-02T01:05:28.804Z,951.57
2018-10-02T01:06:28.800Z,951.53
2018-10-02T01:07:28.784Z,951.56
2018-10-02T01:08:28.778Z,951.59
2018-10-02T01:09:28.773Z,951.54
2018-10-02T01:10:28.765Z,951.53
2018-10-02T01:11:28.807Z,951.56
2018-10-02T01:12:28.745Z,951.50
2018-10-02T01:13:28.740Z,951.48
2018-10-02T01:14:28.729Z,951.48
2018-10-02T01:15:28.722Z,951.53
2018-10-02T01:16:28.804Z,951.52
2018-10-02T01:17:28.707Z,951.51
2018-10-02T01:18:28.698Z,951.51
2018-10-02T01:19:28.691Z,951.54
2018-10-02T01:20:28.691Z,951.56
2018-10-02T01:21:28.703Z,951.51
2018-10-02T01:22:28.664Z,951.57
2018-10-02T01:23:28.657Z,951.58
2018-10-02T01:24:28.651Z,951.60
2018-10-02T01:25:28.636Z,951.59
2018-10-02T01:26:28.680Z,951.62
2018-10-02T01:27:28.623Z,951.62
2018-10-02T01:28:28.618Z,951.57
2018-10-02T01:29:28.610Z,951.56
2018-10-02T02:06:51.032Z,951.48
2018-10-02T02:07:50.998Z,951.46
2018-10-02T02:09:43.907Z,951.49
2018-10-02T02:10:43.884Z,951.48
2018-10-02T02:12:36.798Z,951.53
2018-10-02T02:13:36.781Z,951.50
2018-10-02T02:15:29.890Z,951.51
2018-10-02T02:16:29.860Z,951.49
2018-10-02T02:18:22.775Z,951.51
2018-10-02T02:19:22.746Z,951.54
2018-10-02T02:21:15.805Z,951.55
2018-10-02T02:22:15.778Z,951.57
2018-10-02T02:24:08.623Z,951.60
2018-10-02T02:25:08.586Z,951.59
2018-10-02T02:26:08.591Z,951.57
2018-10-02T02:27:08.573Z,951.60
2018-10-02T02:28:08.562Z,951.63
2018-10-02T02:29:08.573Z,951.59
2018-10-02T02:30:08.558Z,951.62
2018-10-02T02:31:08.541Z,951.61
2018-10-02T02:32:08.536Z,951.64
2018-10-02T02:33:08.517Z,951.61
2018-10-02T02:34:08.503Z,951.60
2018-10-02T02:35:08.498Z,951.61
2018-10-02T02:36:08.490Z,951.64
2018-10-02T02:37:08.480Z,951.59
2018-10-02T02:38:08.472Z,951.56
2018-10-02T02:39:08.464Z,951.58
2018-10-02T02:40:08.457Z,951.58
2018-10-02T02:41:08.450Z,951.56
2018-10-02T02:42:08.436Z,951.61
2018-10-02T02:43:08.431Z,951.63
2018-10-02T02:44:08.421Z,951.60
2018-10-02T02:45:08.416Z,951.62
2018-10-02T02:46:08.405Z,951.65
2018-10-02T02:47:08.395Z,951.67
2018-10-02T02:48:08.395Z,951.68
2018-10-02T02:49:08.378Z,951.71
2018-10-02T02:50:08.371Z,951.73
2018-10-02T02:51:08.361Z,951.71
2018-10-02T02:52:08.382Z,951.74
2018-10-02T02:53:08.344Z,951.75
2018-10-02T02:54:08.337Z,951.72
2018-10-02T02:55:08.328Z,951.68
2018-10-02T02:56:08.319Z,951.73
2018-10-02T02:57:08.320Z,951.70
2018-10-02T02:58:08.302Z,951.69
2018-10-02T02:59:08.294Z,951.73
2018-10-02T03:00:08.289Z,951.73
2018-10-02T03:01:08.277Z,951.71
2018-10-02T03:02:08.268Z,951.73
2018-10-02T03:03:08.260Z,951.74
2018-10-02T03:04:08.254Z,951.74
2018-10-02T03:05:08.242Z,951.73
2018-10-02T03:06:08.238Z,951.78
2018-10-02T03:07:08.226Z,951.82
2018-10-02T03:08:08.219Z,951.85
2018-10-02T03:09:08.209Z,951.86
2018-10-02T03:10:08.204Z,951.85
2018-10-02T03:11:08.198Z,951.80
2018-10-02T03:12:08.190Z,951.83
2018-10-02T03:13:08.176Z,951.87
2018-10-02T03:14:08.168Z,951.87
2018-10-02T03:15:08.165Z,951.86
2018-10-02T03:16:08.158Z,951.88
2018-10-02T03:17:08.146Z,951.81
2018-10-02T03:18:08.137Z,951.82
2018-10-02T03:19:08.129Z,951.82
2018-10-02T03:20:08.129Z,951.84
2018-10-02T03:21:08.110Z,951.87
2018-10-02T03:22:08.103Z,951.88
2018-10-02T03:23:08.103Z,951.90
2018-10-02T03:24:08.089Z,951.94
2018-10-02T03:25:08.089Z,951.92
2018-10-02T03:26:08.662Z,951.91
2018-10-02T03:27:08.062Z,951.95
2018-10-02T03:28:08.057Z,951.91
2018-10-02T03:29:08.042Z,951.87
2018-10-02T03:30:08.042Z,951.88
2018-10-02T03:31:08.025Z,951.87
2018-10-02T03:32:08.025Z,951.86
2018-10-02T03:33:08.010Z,951.88
2018-10-02T03:34:08.005Z,951.88
2018-10-02T03:35:07.986Z,951.88
2018-10-02T03:36:07.987Z,951.91
2018-10-02T03:37:07.973Z,951.89
2018-10-02T03:38:07.970Z,951.88
2018-10-02T03:39:07.960Z,951.89
2018-10-02T03:40:07.955Z,951.93
2018-10-02T03:41:07.941Z,951.93
2018-10-02T03:42:07.931Z,951.92
2018-10-02T03:43:07.930Z,951.97
2018-10-02T03:44:07.916Z,951.95
2018-10-02T03:45:07.905Z,951.96
2018-10-02T03:46:07.899Z,951.95
2018-10-02T03:47:07.893Z,951.95
2018-10-02T03:48:07.883Z,951.94
2018-10-02T03:49:07.871Z,951.91
2018-10-02T03:50:07.866Z,951.94
2018-10-02T03:51:07.857Z,951.93
2018-10-02T03:52:07.847Z,951.90
2018-10-02T03:53:07.838Z,951.90
2018-10-02T03:54:07.835Z,951.89
2018-10-02T03:55:07.819Z,951.90
2018-10-02T03:56:07.816Z,951.91
2018-10-02T03:57:07.804Z,951.92
2018-10-02T03:58:07.800Z,951.95
2018-10-02T03:59:07.788Z,951.99
2018-10-02T04:00:07.798Z,952.02
2018-10-02T04:01:07.773Z,951.98
2018-10-02T04:02:07.766Z,951.95
2018-10-02T04:03:07.755Z,951.96
2018-10-02T04:04:07.744Z,951.95
2018-10-02T04:05:07.737Z,951.96
2018-10-02T04:06:07.727Z,951.95
2018-10-02T04:07:07.718Z,951.92
2018-10-02T04:08:07.716Z,951.93
2018-10-02T04:09:07.701Z,951.89
2018-10-02T04:10:07.694Z,951.90
2018-10-02T04:11:07.686Z,951.91
2018-10-02T04:12:07.678Z,951.91
2018-10-02T04:13:07.719Z,951.90
2018-10-02T04:14:07.659Z,951.93
2018-10-02T04:15:07.652Z,951.96
2018-10-02T04:16:07.648Z,951.99
2018-10-02T04:17:07.636Z,952.09
2018-10-02T04:18:07.624Z,952.08
2018-10-02T04:19:07.640Z,952.14
2018-10-02T04:20:07.614Z,952.13
2018-10-02T04:21:07.613Z,952.15
2018-10-02T04:22:07.619Z,952.19
2018-10-02T04:23:07.626Z,952.20
2018-10-02T04:24:07.589Z,952.20
2018-10-02T04:25:07.640Z,952.21
2018-10-02T04:26:07.647Z,952.23
2018-10-02T04:27:07.564Z,952.21
2018-10-02T04:28:07.583Z,952.24
2018-10-02T04:29:07.546Z,952.23
2018-10-02T04:30:07.576Z,952.23
2018-10-02T04:31:07.531Z,952.21
2018-10-02T04:32:07.536Z,952.22
2018-10-02T04:33:07.548Z,952.21
2018-10-02T04:34:07.583Z,952.23
2018-10-02T04:35:07.503Z,952.24
2018-10-02T04:36:07.529Z,952.18
2018-10-02T04:37:07.491Z,952.21
2018-10-02T04:38:07.476Z,952.18
2018-10-02T04:39:07.536Z,952.16
2018-10-02T04:40:07.555Z,952.20
2018-10-02T04:41:07.452Z,952.20
2018-10-02T04:42:07.447Z,952.22
2018-10-02T04:43:07.453Z,952.19
2018-10-02T04:44:07.457Z,952.23
2018-10-02T04:45:07.438Z,952.21
2018-10-02T04:46:07.439Z,952.24
2018-10-02T04:47:07.436Z,952.28
2018-10-02T04:48:07.418Z,952.27
2018-10-02T04:49:07.400Z,952.27
2018-10-02T04:50:07.414Z,952.27
2018-10-02T04:51:07.420Z,952.31
2018-10-02T04:52:07.412Z,952.28
2018-10-02T04:53:08.055Z,952.26
2018-10-02T04:54:07.365Z,952.27
2018-10-02T04:55:07.387Z,952.24
2018-10-02T04:56:07.369Z,952.24
2018-10-02T04:57:07.349Z,952.27
2018-10-02T04:58:07.303Z,952.29
2018-10-02T04:59:07.303Z,952.22
2018-10-02T05:00:07.287Z,952.29
2018-10-02T05:01:07.280Z,952.28
2018-10-02T05:02:07.276Z,952.27
2018-10-02T05:03:07.271Z,952.32
2018-10-02T05:04:07.327Z,952.31
2018-10-02T05:05:07.297Z,952.26
2018-10-02T05:06:07.302Z,952.33
2018-10-02T05:07:07.276Z,952.35
2018-10-02T05:08:07.244Z,952.42
2018-10-02T05:09:07.216Z,952.44
2018-10-02T05:10:07.222Z,952.46
2018-10-02T05:11:07.231Z,952.42
2018-10-02T05:12:07.236Z,952.48
2018-10-02T05:13:07.195Z,952.51
2018-10-02T05:14:07.248Z,952.51
2018-10-02T05:15:07.167Z,952.48
2018-10-02T05:16:07.163Z,952.47
2018-10-02T05:17:07.167Z,952.45
2018-10-02T05:18:07.138Z,952.46
2018-10-02T05:19:07.138Z,952.49
2018-10-02T05:20:07.190Z,952.48
2018-10-02T05:21:07.197Z,952.50
2018-10-02T05:22:07.108Z,952.49
2018-10-02T05:23:07.106Z,952.54
2018-10-02T05:24:07.111Z,952.52
2018-10-02T05:25:07.117Z,952.54
2018-10-02T05:26:07.128Z,952.54
2018-10-02T05:27:07.082Z,952.55
2018-10-02T05:28:07.072Z,952.57
2018-10-02T05:29:07.047Z,952.52
2018-10-02T05:30:07.053Z,952.55
2018-10-02T05:31:07.057Z,952.54
2018-10-02T05:32:07.079Z,952.59
2018-10-02T05:33:07.072Z,952.62
2018-10-02T05:34:07.078Z,952.60
2018-10-02T05:35:07.164Z,952.59
2018-10-02T05:36:06.996Z,952.61
2018-10-02T05:37:06.999Z,952.58
2018-10-02T05:38:06.976Z,952.61
2018-10-02T05:39:06.954Z,952.64
2018-10-02T05:40:06.947Z,952.69
2018-10-02T05:41:06.935Z,952.62
2018-10-02T05:42:06.934Z,952.61
2018-10-02T05:43:06.928Z,952.57
2018-10-02T05:44:06.938Z,952.60
2018-10-02T05:45:06.904Z,952.60
2018-10-02T05:46:06.894Z,952.56
2018-10-02T05:47:06.889Z,952.55
2018-10-02T05:48:06.878Z,952.54
2018-10-02T05:49:06.875Z,952.50
2018-10-02T05:50:06.862Z,952.52
2018-10-02T05:51:06.852Z,952.53
2018-10-02T05:52:06.865Z,952.55
2018-10-02T05:53:06.837Z,952.55
2018-10-02T05:54:06.831Z,952.56
2018-10-02T05:55:06.819Z,952.52
2018-10-02T05:56:06.869Z,952.51
2018-10-02T05:57:06.807Z,952.49
2018-10-02T05:58:06.802Z,952.51
2018-10-02T05:59:06.781Z,952.47
2018-10-02T06:00:06.782Z,952.44
2018-10-02T06:01:06.771Z,952.48
2018-10-02T06:02:06.762Z,952.49
2018-10-02T06:03:06.758Z,952.51
2018-10-02T06:04:06.762Z,952.55
2018-10-02T06:05:06.747Z,952.57
2018-10-02T06:06:06.728Z,952.61
2018-10-02T06:07:06.755Z,952.54
2018-10-02T06:08:06.740Z,952.58
2018-10-02T06:09:06.737Z,952.57
2018-10-02T06:10:06.778Z,952.62
2018-10-02T06:11:06.689Z,952.60
2018-10-02T06:12:06.697Z,952.59
2018-10-02T06:13:06.682Z,952.57
2018-10-02T06:14:07.649Z,952.52
2018-10-02T06:15:06.681Z,952.49
2018-10-02T06:16:06.669Z,952.54
2018-10-02T06:17:06.676Z,952.57
2018-10-02T06:18:06.666Z,952.61
2018-10-02T06:19:06.667Z,952.67
2018-10-02T06:20:06.635Z,952.67
2018-10-02T06:21:06.634Z,952.70
2018-10-02T06:22:06.637Z,952.71
2018-10-02T06:23:06.626Z,952.70
2018-10-02T06:24:06.638Z,952.74
2018-10-02T06:25:06.638Z,952.76
2018-10-02T06:26:06.613Z,952.83
2018-10-02T06:27:06.605Z,952.82
2018-10-02T06:28:06.602Z,952.82
2018-10-02T06:29:06.595Z,952.81
2018-10-02T06:30:06.589Z,952.77
2018-10-02T06:31:06.591Z,952.74
2018-10-02T06:32:06.585Z,952.78
2018-10-02T06:33:06.585Z,952.77
2018-10-02T06:34:06.574Z,952.76
2018-10-02T06:35:06.573Z,952.79
2018-10-02T06:36:06.574Z,952.78
2018-10-02T06:37:06.564Z,952.74
2018-10-02T06:38:06.581Z,952.76
2018-10-02T06:39:06.560Z,952.67
2018-10-02T06:40:06.553Z,952.69
2018-10-02T06:41:06.552Z,952.66
2018-10-02T06:42:06.552Z,952.67
2018-10-02T06:43:06.544Z,952.69
2018-10-02T06:44:06.542Z,952.67
2018-10-02T06:45:06.602Z,952.68
2018-10-02T06:46:06.538Z,952.68
2018-10-02T06:47:06.532Z,952.75
2018-10-02T06:48:06.530Z,952.77
2018-10-02T06:49:06.525Z,952.80
2018-10-02T06:50:06.533Z,952.88
2018-10-02T06:51:06.598Z,952.80
2018-10-02T06:52:06.609Z,952.80
2018-10-02T06:53:06.531Z,952.77
2018-10-02T06:54:06.511Z,952.78
2018-10-02T06:55:06.509Z,952.81
2018-10-02T06:56:06.506Z,952.85
2018-10-02T06:57:06.589Z,952.83
2018-10-02T06:58:06.500Z,952.82
2018-10-02T06:59:06.496Z,952.81
2018-10-02T07:00:06.496Z,952.82
2018-10-02T07:01:06.496Z,952.84
2018-10-02T07:02:06.493Z,952.82
2018-10-02T07:03:06.621Z,952.87
2018-10-02T07:04:06.486Z,952.82
2018-10-02T07:05:06.487Z,952.82
2018-10-02T07:06:06.484Z,952.84
2018-10-02T07:07:06.483Z,952.84
2018-10-02T07:08:06.480Z,952.88
2018-10-02T07:09:06.580Z,952.94
2018-10-02T07:10:06.477Z,952.91
2018-10-02T07:11:06.475Z,952.93
2018-10-02T07:12:06.473Z,953.00
2018-10-02T07:13:06.477Z,953.01
2018-10-02T07:14:06.472Z,953.00
2018-10-02T07:15:06.519Z,953.05
2018-10-02T07:16:06.469Z,953.10
2018-10-02T07:17:06.466Z,953.06
2018-10-02T07:18:06.468Z,953.15
2018-10-02T07:19:06.469Z,953.20
2018-10-02T07:20:06.469Z,953.16
2018-10-02T07:21:06.524Z,953.20
2018-10-02T07:22:06.465Z,953.27
2018-10-02T07:23:06.469Z,953.34
2018-10-02T07:24:06.470Z,953.33
2018-10-02T07:25:06.470Z,953.35
2018-10-02T07:26:06.484Z,953.32
2018-10-02T07:27:06.531Z,953.31
2018-10-02T07:28:06.522Z,953.33
2018-10-02T07:29:06.472Z,953.33
2018-10-02T07:30:06.481Z,953.34
2018-10-02T07:31:06.639Z,953.30
2018-10-02T07:32:06.480Z,953.30
2018-10-02T07:33:06.620Z,953.28
2018-10-02T07:34:06.486Z,953.24
2018-10-02T07:35:06.491Z,953.23
2018-10-02T07:36:06.488Z,953.22
2018-10-02T07:37:06.577Z,953.26
2018-10-02T07:38:06.506Z,953.26
2018-10-02T07:39:06.564Z,953.23
2018-10-02T07:40:06.501Z,953.30
2018-10-02T07:41:06.512Z,953.28
2018-10-02T07:42:06.564Z,953.29
2018-10-02T07:43:06.506Z,953.25
2018-10-02T07:44:06.519Z,953.25
2018-10-02T07:45:06.584Z,953.25
2018-10-02T07:46:06.513Z,953.24
2018-10-02T07:47:06.538Z,953.26
2018-10-02T07:48:06.527Z,953.23
2018-10-02T07:49:06.556Z,953.24
2018-10-02T07:50:06.521Z,953.19
2018-10-02T07:51:06.568Z,953.28
2018-10-02T07:52:06.557Z,953.27
2018-10-02T07:53:06.554Z,953.26
2018-10-02T07:54:06.602Z,953.24
2018-10-02T07:55:06.569Z,953.22
2018-10-02T07:56:06.563Z,953.22
2018-10-02T07:57:06.582Z,953.20
2018-10-02T07:58:06.514Z,953.19
2018-10-02T07:59:06.518Z,953.16
2018-10-02T08:00:06.578Z,953.19
2018-10-02T08:01:06.508Z,953.21
2018-10-02T08:02:06.503Z,953.18
2018-10-02T08:03:06.541Z,953.18
2018-10-02T08:04:06.536Z,953.20
2018-10-02T08:05:06.608Z,953.20
2018-10-02T08:06:06.575Z,953.21
2018-10-02T08:07:06.495Z,953.27
2018-10-02T08:08:06.489Z,953.29
2018-10-02T08:09:06.490Z,953.26
2018-10-02T08:10:06.486Z,953.30
2018-10-02T08:11:06.483Z,953.31
2018-10-02T08:12:06.583Z,953.27
2018-10-02T08:13:06.479Z,953.36
2018-10-02T08:14:06.482Z,953.38
2018-10-02T08:15:06.536Z,953.35
2018-10-02T08:16:06.476Z,953.39
2018-10-02T08:17:06.482Z,953.41
2018-10-02T08:18:06.580Z,953.41
2018-10-02T08:19:06.482Z,953.47
2018-10-02T08:20:06.564Z,953.43
2018-10-02T08:21:06.484Z,953.38
2018-10-02T08:22:06.540Z,953.43
2018-10-02T08:23:06.477Z,953.38
2018-10-02T08:24:06.529Z,953.33
2018-10-02T08:25:06.483Z,953.29
2018-10-02T08:26:06.539Z,953.28
2018-10-02T08:27:06.594Z,953.28
2018-10-02T08:28:06.489Z,953.31
2018-10-02T08:29:06.483Z,953.33
2018-10-02T08:30:06.603Z,953.26
2018-10-02T08:31:06.489Z,953.17
2018-10-02T08:32:06.499Z,953.20
2018-10-02T08:33:06.531Z,953.23
2018-10-02T08:34:06.498Z,953.26
2018-10-02T08:35:06.561Z,953.32
2018-10-02T08:36:06.599Z,953.32
2018-10-02T08:37:06.504Z,953.36
2018-10-02T08:38:06.542Z,953.36
2018-10-02T08:39:06.544Z,953.39
2018-10-02T08:40:06.512Z,953.47
2018-10-02T08:41:06.522Z,953.41
2018-10-02T08:42:06.521Z,953.47
2018-10-02T08:43:06.530Z,953.45
2018-10-02T08:44:06.542Z,953.41
2018-10-02T08:45:06.585Z,953.39
2018-10-02T08:46:06.537Z,953.40
2018-10-02T08:47:06.545Z,953.41
2018-10-02T08:48:06.550Z,953.41
2018-10-02T08:49:06.571Z,953.44
2018-10-02T08:50:06.563Z,953.49
2018-10-02T08:51:06.657Z,953.49
2018-10-02T08:52:06.784Z,953.49
2018-10-02T08:53:06.597Z,953.52
2018-10-02T08:54:06.702Z,953.45
2018-10-02T08:55:06.630Z,953.50
2018-10-02T08:56:06.595Z,953.48
2018-10-02T08:57:06.607Z,953.52
2018-10-02T08:58:06.610Z,953.53
2018-10-02T08:59:06.674Z,953.53
2018-10-02T09:00:06.628Z,953.53
2018-10-02T09:01:06.666Z,953.52
2018-10-02T09:02:06.639Z,953.53
2018-10-02T09:03:06.654Z,953.53
2018-10-02T09:04:06.659Z,953.54
2018-10-02T09:05:06.659Z,953.55
2018-10-02T09:06:06.667Z,953.54
2018-10-02T09:07:06.735Z,953.45
2018-10-02T09:08:06.682Z,953.45
2018-10-02T09:09:06.690Z,953.45
2018-10-02T09:10:06.696Z,953.45
2018-10-02T09:11:06.720Z,953.46
2018-10-02T09:12:06.703Z,953.46
2018-10-02T09:13:06.731Z,953.50
2018-10-02T09:14:06.719Z,953.49
2018-10-02T09:15:12.155Z,953.42
2018-10-02T09:16:06.828Z,953.41
2018-10-02T09:17:06.727Z,953.46
2018-10-02T09:18:06.738Z,953.46
2018-10-02T09:19:06.783Z,953.41
2018-10-02T09:20:06.738Z,953.39
2018-10-02T09:21:06.743Z,953.40
2018-10-02T09:22:06.843Z,953.33
2018-10-02T09:23:06.751Z,953.34
2018-10-02T09:24:06.758Z,953.39
2018-10-02T09:25:06.786Z,953.38
2018-10-02T09:26:06.774Z,953.40
2018-10-02T09:27:06.761Z,953.37
2018-10-02T09:28:06.865Z,953.38
2018-10-02T09:29:06.781Z,953.40
2018-10-02T09:30:06.791Z,953.34
2018-10-02T09:31:06.847Z,953.33
2018-10-02T09:32:06.794Z,953.32
2018-10-02T09:33:06.793Z,953.25
2018-10-02T09:34:06.803Z,953.32
2018-10-02T09:35:06.800Z,953.28
2018-10-02T09:36:06.812Z,953.27
2018-10-02T09:37:06.967Z,953.21
2018-10-02T09:38:06.809Z,953.23
2018-10-02T09:39:06.801Z,953.24
2018-10-02T09:40:06.887Z,953.23
2018-10-02T09:41:06.832Z,953.27
2018-10-02T09:42:06.813Z,953.29
2018-10-02T09:43:06.844Z,953.32
2018-10-02T09:44:06.898Z,953.30
2018-10-02T09:45:06.824Z,953.33
2018-10-02T09:46:06.825Z,953.30
2018-10-02T09:47:06.824Z,953.20
2018-10-02T09:48:06.841Z,953.22
2018-10-02T09:49:27.849Z,953.24
2018-10-02T09:50:06.837Z,953.27
2018-10-02T09:51:06.915Z,953.32
2018-10-02T09:52:06.846Z,953.33
2018-10-02T09:53:06.887Z,953.32
2018-10-02T09:54:06.850Z,953.29
2018-10-02T09:55:06.993Z,953.28
2018-10-02T09:56:06.865Z,953.30
2018-10-02T09:57:06.948Z,953.30
2018-10-02T09:58:06.878Z,953.26
2018-10-02T09:59:06.885Z,953.25
2018-10-02T10:00:06.889Z,953.23
2018-10-02T10:01:07.044Z,953.33
2018-10-02T10:02:06.896Z,953.24
2018-10-02T10:03:06.975Z,953.21
2018-10-02T10:04:06.959Z,953.20
2018-10-02T10:05:06.920Z,953.27
2018-10-02T10:06:06.928Z,953.30
2018-10-02T10:07:06.923Z,953.33
2018-10-02T10:08:06.962Z,953.34
2018-10-02T10:09:06.944Z,953.29
2018-10-02T10:10:06.949Z,953.20
2018-10-02T10:11:06.952Z,953.24
2018-10-02T10:12:06.960Z,953.25
2018-10-02T10:13:06.959Z,953.26
2018-10-02T10:14:06.965Z,953.32
2018-10-02T10:15:06.969Z,953.35
2018-10-02T10:16:07.038Z,953.30
2018-10-02T10:17:07.119Z,953.31
2018-10-02T10:18:06.992Z,953.32
2018-10-02T10:19:06.992Z,953.33
2018-10-02T10:20:06.995Z,953.36
2018-10-02T10:21:07.003Z,953.36
2018-10-02T10:22:07.006Z,953.37
2018-10-02T10:23:07.006Z,953.40
2018-10-02T10:24:07.013Z,953.36
2018-10-02T10:25:07.029Z,953.42
2018-10-02T10:26:07.021Z,953.38
2018-10-02T10:27:07.023Z,953.43
2018-10-02T10:28:07.030Z,953.33
2018-10-02T10:29:07.132Z,953.32
2018-10-02T10:30:07.031Z,953.26
2018-10-02T10:31:07.031Z,953.20
2018-10-02T10:32:07.035Z,953.15
2018-10-02T10:33:07.035Z,953.14
2018-10-02T10:34:07.038Z,953.16
2018-10-02T10:35:07.059Z,953.16
2018-10-02T10:36:07.048Z,953.25
2018-10-02T10:37:07.046Z,953.29
2018-10-02T10:38:07.041Z,953.26
2018-10-02T10:39:07.046Z,953.24
2018-10-02T10:40:07.046Z,953.28
2018-10-02T10:41:07.110Z,953.21
2018-10-02T10:42:07.042Z,953.19
2018-10-02T10:43:07.047Z,953.23
2018-10-02T10:44:07.049Z,953.24
2018-10-02T10:45:07.056Z,953.31
2018-10-02T10:46:07.055Z,953.27
2018-10-02T10:47:07.052Z,953.24
2018-10-02T10:48:07.052Z,953.30
2018-10-02T10:49:07.052Z,953.23
2018-10-02T10:50:07.058Z,953.29
2018-10-02T10:51:07.062Z,953.25
2018-10-02T10:52:07.061Z,953.28
2018-10-02T10:53:07.162Z,953.28
2018-10-02T10:54:07.083Z,953.24
2018-10-02T10:55:07.066Z,953.27
2018-10-02T10:56:07.067Z,953.25
2018-10-02T10:57:07.101Z,953.25
2018-10-02T10:58:07.074Z,953.27
2018-10-02T10:59:07.158Z,953.28
2018-10-02T11:00:07.069Z,953.26
2018-10-02T11:01:07.086Z,953.27
2018-10-02T11:02:07.102Z,953.27
2018-10-02T11:03:07.101Z,953.31
2018-10-02T11:04:07.102Z,953.32
2018-10-02T11:05:07.282Z,953.31
2018-10-02T11:06:07.102Z,953.21
2018-10-02T11:07:07.102Z,953.25
2018-10-02T11:08:07.162Z,953.22
2018-10-02T11:09:07.111Z,953.20
2018-10-02T11:10:07.115Z,953.16
2018-10-02T11:11:07.127Z,953.18
2018-10-02T11:12:07.120Z,953.16
2018-10-02T11:13:07.127Z,953.18
2018-10-02T11:14:07.131Z,953.19
2018-10-02T11:15:07.147Z,953.20
2018-10-02T11:16:07.142Z,953.19
2018-10-02T11:17:07.145Z,953.20
2018-10-02T11:18:07.147Z,953.08
2018-10-02T11:19:07.151Z,953.14
2018-10-02T11:20:07.159Z,953.06
2018-10-02T11:21:07.156Z,953.12
2018-10-02T11:22:07.164Z,953.09
2018-10-02T11:23:07.165Z,953.13
2018-10-02T11:24:07.185Z,953.06
2018-10-02T11:25:07.192Z,953.04
2018-10-02T11:26:07.184Z,953.02
2018-10-02T11:27:07.186Z,952.96
2018-10-02T11:28:07.185Z,952.92
2018-10-02T11:29:07.188Z,952.91
2018-10-02T11:30:07.195Z,952.89
2018-10-02T11:31:07.239Z,952.87
2018-10-02T11:32:07.204Z,952.80
2018-10-02T11:33:07.205Z,952.79
2018-10-02T11:34:07.214Z,952.75
2018-10-02T11:35:07.218Z,952.71
2018-10-02T11:36:07.217Z,952.72
2018-10-02T11:37:07.228Z,952.73
2018-10-02T11:38:07.230Z,952.73
2018-10-02T11:39:07.232Z,952.79
2018-10-02T11:40:07.230Z,952.73
2018-10-02T11:41:07.234Z,952.79
2018-10-02T11:42:07.235Z,952.79
2018-10-02T11:43:07.271Z,952.74
2018-10-02T11:44:07.325Z,952.80
2018-10-02T11:45:07.338Z,952.80
2018-10-02T11:46:07.235Z,952.85
2018-10-02T11:47:07.248Z,952.93
2018-10-02T11:48:07.247Z,952.90
2018-10-02T11:49:07.298Z,952.87
2018-10-02T11:50:07.254Z,952.89
2018-10-02T11:51:07.321Z,952.86
2018-10-02T11:52:07.262Z,952.85
2018-10-02T11:53:07.265Z,952.85
2018-10-02T11:54:07.260Z,952.78
2018-10-02T11:55:07.300Z,952.74
2018-10-02T11:56:07.321Z,952.74
2018-10-02T11:57:07.299Z,952.71
2018-10-02T11:58:07.278Z,952.69
2018-10-02T11:59:07.279Z,952.60
2018-10-02T12:00:07.281Z,952.61
2018-10-02T12:01:07.432Z,952.61
2018-10-02T12:02:07.290Z,952.49
2018-10-02T12:03:07.303Z,952.56
2018-10-02T12:04:07.293Z,952.55
2018-10-02T12:05:07.323Z,952.55
2018-10-02T12:06:07.364Z,952.46
2018-10-02T12:07:07.301Z,952.49
2018-10-02T12:08:07.355Z,952.51
2018-10-02T12:09:07.397Z,952.46
2018-10-02T12:10:07.311Z,952.45
2018-10-02T12:11:07.318Z,952.39
2018-10-02T12:12:07.299Z,952.40
2018-10-02T12:13:07.411Z,952.35
2018-10-02T12:14:07.425Z,952.33
2018-10-02T12:15:07.321Z,952.32
2018-10-02T12:16:07.318Z,952.32
2018-10-02T12:17:07.318Z,952.33
2018-10-02T12:18:07.316Z,952.44
2018-10-02T12:19:07.317Z,952.39
2018-10-02T12:20:07.369Z,952.42
2018-10-02T12:21:07.320Z,952.46
2018-10-02T12:22:07.331Z,952.50
2018-10-02T12:23:07.324Z,952.41
2018-10-02T12:24:07.325Z,952.39
2018-10-02T12:25:07.318Z,952.44
2018-10-02T12:26:07.331Z,952.40
2018-10-02T12:27:07.322Z,952.39
2018-10-02T12:28:07.324Z,952.40
2018-10-02T12:29:07.319Z,952.35
2018-10-02T12:30:07.320Z,952.33
2018-10-02T12:31:07.350Z,952.33
2018-10-02T12:32:07.322Z,952.33
2018-10-02T12:33:07.320Z,952.27
2018-10-02T12:34:07.320Z,952.30
2018-10-02T12:35:07.324Z,952.27
2018-10-02T12:36:07.346Z,952.24
2018-10-02T12:37:07.319Z,952.21
2018-10-02T12:38:07.323Z,952.19
2018-10-02T12:39:07.358Z,952.17
2018-10-02T12:40:07.320Z,952.23
2018-10-02T12:41:07.321Z,952.18
2018-10-02T12:42:07.318Z,952.22
2018-10-02T12:43:07.316Z,952.26
2018-10-02T12:44:07.317Z,952.23
2018-10-02T12:45:07.318Z,952.24
2018-10-02T12:46:07.333Z,952.20
2018-10-02T12:47:07.372Z,952.13
2018-10-02T12:48:07.311Z,952.18
2018-10-02T12:49:07.333Z,952.19
2018-10-02T12:50:07.318Z,952.14
2018-10-02T12:51:07.310Z,952.17
2018-10-02T12:52:07.328Z,952.12
2018-10-02T12:53:07.367Z,952.19
2018-10-02T12:54:07.307Z,952.15
2018-10-02T12:55:07.302Z,952.13
2018-10-02T12:56:07.316Z,952.16
2018-10-02T12:57:07.301Z,952.22
2018-10-02T12:58:07.314Z,952.22
2018-10-02T12:59:07.327Z,952.15
2018-10-02T13:00:07.300Z,952.18
2018-10-02T13:01:07.290Z,952.15
2018-10-02T13:02:07.292Z,952.16
2018-10-02T13:03:07.282Z,952.19
2018-10-02T13:04:07.292Z,952.15
2018-10-02T13:05:07.296Z,952.19
2018-10-02T13:06:07.325Z,952.20
2018-10-02T13:07:07.360Z,952.25
2018-10-02T13:08:07.337Z,952.24
2018-10-02T13:09:07.288Z,952.24
2018-10-02T13:10:07.339Z,952.15